Time;durP1;ratioP1;P1;durP2;ratioP2;P2;SDS_P1;SDS_P2;PMS_P1;PMS_P2;Temp;Humidity;BMP_temperature;BMP_pressure;BME280_temperature;BME280_humidity;BME280_pressure;Samples;Min_cycle;Max_cycle;Signal;HPM_P1;HPM_P2
2022/08/18 00:00:26;;;;;;;;;;;19.80;99.90;;;;;;4228083;28;19900;-65
2022/08/18 00:02:28;;;;;;;;;;;19.90;99.90;;;;;;4228599;28;19945;-67
2022/08/18 00:04:30;;;;;;;;;;;19.80;99.90;;;;;;4228236;28;19904;-65
2022/08/18 00:06:31;;;;;;;;;;;19.80;99.90;;;;;;4228157;28;19904;-64
2022/08/18 00:08:32;;;;;;;;;;;19.80;99.90;;;;;;4228176;28;19916;-64
2022/08/18 00:10:33;;;;;;;;;;;19.80;99.90;;;;;;4228154;27;19911;-64
2022/08/18 00:12:38;;;;;;;;;;;19.80;99.90;;;;;;4228970;28;19976;-64
2022/08/18 00:14:39;;;;;;;;;;;19.70;99.90;;;;;;4227843;28;19908;-64
2022/08/18 00:16:40;;;;;;;;;;;19.70;99.90;;;;;;4228951;28;19923;-65
2022/08/18 00:18:41;;;;;;;;;;;19.60;99.90;;;;;;4228241;28;19980;-66
2022/08/18 00:20:42;;;;;;;;;;;19.60;99.90;;;;;;4228926;28;19915;-63
2022/08/18 00:22:43;;;;;;;;;;;19.60;99.90;;;;;;4227569;28;19955;-65
2022/08/18 00:24:45;;;;;;;;;;;19.60;99.90;;;;;;4228876;28;19904;-64
2022/08/18 00:26:46;;;;;;;;;;;19.50;99.90;;;;;;4227720;28;19949;-66
2022/08/18 00:28:47;;;;;;;;;;;19.50;99.90;;;;;;4228685;28;19981;-63
2022/08/18 00:30:48;;;;;;;;;;;19.50;99.90;;;;;;4226841;28;19904;-63
2022/08/18 00:32:50;;;;;;;;;;;19.40;99.90;;;;;;4228243;28;19903;-63
2022/08/18 00:34:52;;;;;;;;;;;19.40;99.90;;;;;;4227943;28;19949;-63
2022/08/18 00:36:53;;;;;;;;;;;19.40;99.90;;;;;;4228004;28;19953;-62
2022/08/18 00:38:54;;;;;;;;;;;19.30;99.90;;;;;;4228234;28;19908;-64
2022/08/18 00:40:55;;;;;;;;;;;19.40;99.90;;;;;;4227820;28;19965;-66
2022/08/18 00:42:57;;;;;;;;;;;19.40;99.90;;;;;;4228673;28;20413;-64
2022/08/18 00:45:00;;;;;;;;;;;19.40;99.90;;;;;;4227192;28;19949;-66
2022/08/18 00:47:01;;;;;;;;;;;19.40;99.90;;;;;;4228782;28;21429;-63
2022/08/18 00:49:02;;;;;;;;;;;19.40;99.90;;;;;;4227768;28;19962;-63
2022/08/18 00:51:09;;;;;;;;;;;19.40;99.90;;;;;;4228407;28;19948;-63
2022/08/18 00:53:13;;;;;;;;;;;19.40;99.90;;;;;;4227429;28;19908;-66
2022/08/18 00:55:16;;;;;;;;;;;19.40;99.90;;;;;;4228711;28;20000;-65
2022/08/18 00:57:20;;;;;;;;;;;19.40;99.90;;;;;;4227503;28;19911;-65
2022/08/18 00:59:30;;;;;;;;;;;19.30;99.90;;;;;;4228729;28;19949;-65
2022/08/18 01:01:31;;;;;;;;;;;19.30;99.90;;;;;;4227577;28;19904;-63
2022/08/18 01:03:34;;;;;;;;;;;19.40;99.90;;;;;;4228490;28;19957;-65
2022/08/18 01:05:39;;;;;;;;;;;19.40;99.90;;;;;;4227544;28;20333;-63
2022/08/18 01:07:44;;;;;;;;;;;19.40;99.90;;;;;;4228462;28;20319;-65
2022/08/18 01:09:50;;;;;;;;;;;19.50;99.90;;;;;;4227283;28;19908;-63
2022/08/18 01:11:51;;;;;;;;;;;19.50;99.90;;;;;;4228249;28;19904;-65
2022/08/18 01:13:52;;;;;;;;;;;19.60;99.90;;;;;;4227525;28;19911;-63
2022/08/18 01:15:54;;;;;;;;;;;19.60;99.90;;;;;;4228087;28;19937;-66
2022/08/18 01:22:46;;;;;;;;;;;19.60;99.90;;;;;;4227272;28;20028;-63
2022/08/18 01:27:08;;;;;;;;;;;19.60;99.90;;;;;;4227193;28;19945;-64
2022/08/18 01:29:10;;;;;;;;;;;19.60;99.90;;;;;;4228220;28;19919;-65
2022/08/18 01:31:27;;;;;;;;;;;19.60;99.90;;;;;;4227455;28;19933;-63
2022/08/18 01:33:33;;;;;;;;;;;19.60;99.90;;;;;;4228230;28;19933;-62
2022/08/18 01:35:34;;;;;;;;;;;19.60;99.90;;;;;;4227327;28;19948;-66
2022/08/18 01:37:35;;;;;;;;;;;19.60;99.90;;;;;;4227737;28;20408;-63
2022/08/18 01:39:37;;;;;;;;;;;19.60;99.90;;;;;;4227659;28;19912;-63
2022/08/18 01:41:38;;;;;;;;;;;19.60;99.90;;;;;;4228363;28;20345;-64
2022/08/18 01:43:39;;;;;;;;;;;19.50;99.90;;;;;;4230879;28;19945;-64
2022/08/18 01:45:41;;;;;;;;;;;19.50;99.90;;;;;;4230270;28;19908;-62
2022/08/18 01:47:42;;;;;;;;;;;19.50;99.90;;;;;;4231339;28;20337;-63
2022/08/18 01:49:43;;;;;;;;;;;19.50;99.90;;;;;;4230081;28;19960;-64
2022/08/18 01:51:45;;;;;;;;;;;19.60;99.90;;;;;;4231066;28;19911;-63
2022/08/18 01:53:47;;;;;;;;;;;19.50;99.90;;;;;;4230361;27;20374;-63
2022/08/18 01:55:48;;;;;;;;;;;19.50;99.90;;;;;;4231454;27;19971;-63
2022/08/18 01:57:49;;;;;;;;;;;19.50;99.90;;;;;;4230047;28;19998;-64
2022/08/18 01:59:50;;;;;;;;;;;19.50;99.90;;;;;;4231459;27;19904;-63
2022/08/18 02:01:55;;;;;;;;;;;19.50;99.90;;;;;;4229854;28;20426;-63
2022/08/18 02:03:58;;;;;;;;;;;19.50;99.90;;;;;;4231067;28;19904;-63
2022/08/18 02:06:00;;;;;;;;;;;19.50;99.90;;;;;;4229814;28;20349;-63
2022/08/18 02:08:02;;;;;;;;;;;19.40;99.90;;;;;;4230640;28;19912;-66
2022/08/18 02:10:06;;;;;;;;;;;19.40;99.90;;;;;;4229882;28;19915;-64
2022/08/18 02:12:07;;;;;;;;;;;19.30;99.90;;;;;;4230371;28;19907;-64
2022/08/18 02:14:07;;;;;;;;;;;19.20;99.90;;;;;;4230366;28;20744;-63
2022/08/18 02:16:08;;;;;;;;;;;19.20;99.90;;;;;;4228505;28;19949;-68
2022/08/18 02:18:14;;;;;;;;;;;19.10;99.90;;;;;;4230826;28;19965;-64
2022/08/18 02:20:16;;;;;;;;;;;19.00;99.90;;;;;;4229561;28;19904;-63
2022/08/18 02:22:18;;;;;;;;;;;19.00;99.90;;;;;;4230116;28;19916;-64
2022/08/18 02:24:19;;;;;;;;;;;18.90;99.90;;;;;;4229541;28;20410;-63
2022/08/18 02:26:22;;;;;;;;;;;18.90;99.90;;;;;;4230567;28;19949;-66
2022/08/18 02:28:23;;;;;;;;;;;18.90;99.90;;;;;;4229382;28;19957;-64
2022/08/18 02:30:23;;;;;;;;;;;18.90;99.90;;;;;;4230534;28;19907;-64
2022/08/18 02:32:25;;;;;;;;;;;18.90;99.90;;;;;;4229292;28;19926;-67
2022/08/18 02:34:25;;;;;;;;;;;18.90;99.90;;;;;;4230469;28;19957;-64
2022/08/18 02:36:27;;;;;;;;;;;18.90;99.90;;;;;;4228827;28;19986;-64
2022/08/18 02:38:28;;;;;;;;;;;18.90;99.90;;;;;;4230375;28;19908;-67
2022/08/18 02:40:32;;;;;;;;;;;18.90;99.90;;;;;;4229380;28;20352;-64
2022/08/18 02:42:33;;;;;;;;;;;18.90;99.90;;;;;;4230117;28;19903;-66
2022/08/18 02:44:34;;;;;;;;;;;18.70;99.90;;;;;;4229330;28;19991;-66
2022/08/18 02:46:36;;;;;;;;;;;18.60;99.90;;;;;;4229769;28;19949;-63
2022/08/18 02:48:37;;;;;;;;;;;18.50;99.90;;;;;;4230111;28;19942;-63
2022/08/18 02:50:47;;;;;;;;;;;18.40;99.90;;;;;;4229466;28;19977;-65
2022/08/18 02:52:48;;;;;;;;;;;18.40;99.90;;;;;;4229096;28;19907;-65
2022/08/18 02:54:49;;;;;;;;;;;18.30;99.90;;;;;;4228611;28;19918;-65
2022/08/18 02:56:51;;;;;;;;;;;18.30;99.90;;;;;;4229943;28;19953;-63
2022/08/18 02:58:54;;;;;;;;;;;18.30;99.90;;;;;;4229027;28;19904;-65
2022/08/18 03:00:55;;;;;;;;;;;18.20;99.90;;;;;;4230186;28;20347;-65
2022/08/18 03:02:56;;;;;;;;;;;18.20;99.90;;;;;;4228736;28;19964;-63
2022/08/18 03:04:57;;;;;;;;;;;18.20;99.90;;;;;;4230258;28;19908;-65
2022/08/18 03:07:00;;;;;;;;;;;18.30;99.90;;;;;;4228928;28;20386;-63
2022/08/18 03:09:01;;;;;;;;;;;18.30;99.90;;;;;;4229941;28;19916;-64
2022/08/18 03:11:02;;;;;;;;;;;18.20;99.90;;;;;;4228827;28;19904;-64
2022/08/18 03:13:03;;;;;;;;;;;18.20;99.90;;;;;;4229825;28;19914;-63
2022/08/18 03:15:04;;;;;;;;;;;18.20;99.90;;;;;;4228596;28;19935;-66
2022/08/18 03:17:07;;;;;;;;;;;18.20;99.90;;;;;;4229509;28;19937;-66
2022/08/18 03:19:08;;;;;;;;;;;18.10;99.90;;;;;;4229490;28;19904;-67
2022/08/18 03:21:12;;;;;;;;;;;18.10;99.90;;;;;;4228952;28;19931;-63
2022/08/18 03:23:13;;;;;;;;;;;18.10;99.90;;;;;;4229078;28;20080;-63
2022/08/18 03:25:14;;;;;;;;;;;18.10;99.90;;;;;;4228712;28;19915;-66
2022/08/18 03:27:15;;;;;;;;;;;18.10;99.90;;;;;;4229672;27;19903;-64
2022/08/18 03:29:16;;;;;;;;;;;18.10;99.90;;;;;;4228330;28;20729;-64
2022/08/18 03:31:18;;;;;;;;;;;18.10;99.90;;;;;;4229563;28;19907;-66
2022/08/18 03:33:19;;;;;;;;;;;18.10;99.90;;;;;;4228270;28;19912;-64
2022/08/18 03:35:20;;;;;;;;;;;18.10;99.90;;;;;;4229196;28;20359;-65
2022/08/18 03:37:21;;;;;;;;;;;18.10;99.90;;;;;;4228251;28;19911;-63
2022/08/18 03:39:22;;;;;;;;;;;18.20;99.90;;;;;;4229522;28;20349;-62
2022/08/18 03:41:24;;;;;;;;;;;18.20;99.90;;;;;;4228136;27;19903;-62
2022/08/18 03:43:25;;;;;;;;;;;18.20;99.90;;;;;;4229316;28;19937;-63
2022/08/18 03:45:27;;;;;;;;;;;18.30;99.90;;;;;;4228125;28;19948;-63
2022/08/18 03:47:28;;;;;;;;;;;18.30;99.90;;;;;;4229203;28;19903;-65
2022/08/18 03:49:30;;;;;;;;;;;18.40;99.90;;;;;;4228909;28;20452;-63
2022/08/18 03:51:31;;;;;;;;;;;18.50;99.90;;;;;;4228544;28;19904;-64
2022/08/18 03:53:33;;;;;;;;;;;18.60;99.90;;;;;;4228591;28;19950;-63
2022/08/18 03:55:34;;;;;;;;;;;18.60;99.90;;;;;;4228137;28;19908;-65
2022/08/18 03:57:36;;;;;;;;;;;18.60;99.90;;;;;;4228810;27;20248;-63
2022/08/18 03:59:42;;;;;;;;;;;18.60;99.90;;;;;;4227570;28;19912;-62
2022/08/18 04:01:44;;;;;;;;;;;18.70;99.90;;;;;;4228321;28;20213;-64
2022/08/18 04:03:46;;;;;;;;;;;18.70;99.90;;;;;;4227505;28;19907;-64
2022/08/18 04:05:47;;;;;;;;;;;18.70;99.90;;;;;;4228816;28;19949;-64
2022/08/18 04:07:48;;;;;;;;;;;18.80;99.90;;;;;;4227959;27;19908;-62
2022/08/18 04:09:49;;;;;;;;;;;18.90;99.90;;;;;;4228871;28;20271;-63
2022/08/18 04:11:50;;;;;;;;;;;19.00;99.90;;;;;;4227771;28;20448;-63
2022/08/18 04:13:51;;;;;;;;;;;19.20;99.90;;;;;;4228833;28;19904;-61
2022/08/18 04:15:52;;;;;;;;;;;19.40;99.90;;;;;;4227685;28;19914;-67
2022/08/18 04:17:53;;;;;;;;;;;19.60;99.90;;;;;;4228777;28;20363;-69
2022/08/18 04:19:55;;;;;;;;;;;19.80;99.90;;;;;;4227981;28;19911;-63
2022/08/18 04:21:56;;;;;;;;;;;20.20;99.90;;;;;;4227660;28;19953;-66
2022/08/18 04:24:02;;;;;;;;;;;20.50;99.90;;;;;;4228032;28;19916;-63
2022/08/18 04:26:05;;;;;;;;;;;20.80;99.90;;;;;;4228025;28;19907;-66
2022/08/18 04:28:06;;;;;;;;;;;21.10;99.90;;;;;;4227800;28;20350;-65
2022/08/18 04:30:08;;;;;;;;;;;21.30;99.90;;;;;;4227773;28;19947;-66
2022/08/18 04:32:08;;;;;;;;;;;21.50;99.90;;;;;;4228290;28;19908;-66
2022/08/18 04:34:11;;;;;;;;;;;21.70;99.90;;;;;;4222439;28;19965;-64
2022/08/18 04:36:13;;;;;;;;;;;22.00;99.90;;;;;;4210984;28;19934;-64
2022/08/18 04:38:14;;;;;;;;;;;22.30;99.90;;;;;;4210853;28;20298;-67
2022/08/18 04:40:15;;;;;;;;;;;22.50;99.90;;;;;;4215758;28;20014;-62
2022/08/18 04:42:16;;;;;;;;;;;22.60;99.90;;;;;;4227485;28;19911;-64
2022/08/18 04:44:18;;;;;;;;;;;22.70;99.90;;;;;;4228183;27;19903;-64
2022/08/18 04:46:18;;;;;;;;;;;23.00;99.90;;;;;;4226688;28;20361;-67
2022/08/18 04:48:20;;;;;;;;;;;23.30;99.90;;;;;;4228813;28;19934;-63
2022/08/18 04:50:23;;;;;;;;;;;23.80;99.90;;;;;;4227315;27;19911;-63
2022/08/18 04:54:44;;;;;;;;;;;24.40;99.90;;;;;;4227288;27;19972;-64
2022/08/18 04:56:45;;;;;;;;;;;24.70;99.90;;;;;;4228841;28;19912;-67
2022/08/18 04:58:49;;;;;;;;;;;24.90;99.90;;;;;;4227619;28;19946;-66
2022/08/18 05:00:57;;;;;;;;;;;25.10;99.90;;;;;;4227873;28;19907;-63
2022/08/18 05:02:59;;;;;;;;;;;25.40;99.90;;;;;;4227344;28;19900;-65
2022/08/18 05:05:02;;;;;;;;;;;25.80;99.90;;;;;;4227129;27;19903;-65
2022/08/18 05:07:04;;;;;;;;;;;26.00;99.90;;;;;;4227941;28;19911;-63
2022/08/18 05:09:06;;;;;;;;;;;26.10;99.90;;;;;;4244432;28;19915;-67
2022/08/18 05:11:08;;;;;;;;;;;26.30;99.90;;;;;;4243665;27;19907;-68
2022/08/18 05:13:09;;;;;;;;;;;26.60;99.90;;;;;;4243999;28;19956;-74
2022/08/18 05:15:10;;;;;;;;;;;26.80;99.90;;;;;;4245164;28;19914;-62
2022/08/18 05:17:12;;;;;;;;;;;27.00;99.90;;;;;;4245317;27;19914;-70
2022/08/18 05:19:13;;;;;;;;;;;27.00;99.90;;;;;;4249029;27;19907;-65
2022/08/18 05:21:15;;;;;;;;;;;27.20;99.90;;;;;;4246857;27;20349;-63
2022/08/18 05:23:16;;;;;;;;;;;27.40;99.90;;;;;;4248366;27;19964;-62
2022/08/18 05:25:17;;;;;;;;;;;27.40;99.90;;;;;;4245555;27;20347;-66
2022/08/18 05:27:17;;;;;;;;;;;27.50;99.90;;;;;;4248403;27;19935;-63
2022/08/18 05:29:21;;;;;;;;;;;27.70;99.90;;;;;;4247030;27;19915;-64
2022/08/18 05:31:24;;;;;;;;;;;28.00;99.90;;;;;;4247674;27;20349;-63
2022/08/18 05:33:25;;;;;;;;;;;28.30;99.90;;;;;;4247111;27;19968;-63
2022/08/18 05:35:30;;;;;;;;;;;28.70;99.90;;;;;;4247788;27;19980;-62
2022/08/18 05:37:39;;;;;;;;;;;28.90;99.90;;;;;;4247183;27;19911;-62
2022/08/18 05:39:53;;;;;;;;;;;29.00;99.90;;;;;;4247631;27;20344;-63
2022/08/18 05:42:00;;;;;;;;;;;29.10;99.90;;;;;;4246842;27;20332;-63
2022/08/18 05:44:01;;;;;;;;;;;29.10;99.90;;;;;;4246931;27;20707;-62
2022/08/18 05:46:04;;;;;;;;;;;29.10;99.90;;;;;;4247055;27;19908;-62
2022/08/18 05:48:05;;;;;;;;;;;29.30;99.90;;;;;;4247042;27;19908;-63
2022/08/18 05:50:10;;;;;;;;;;;29.60;99.90;;;;;;4247461;27;19968;-64
2022/08/18 05:52:13;;;;;;;;;;;30.00;99.90;;;;;;4246674;27;20430;-63
2022/08/18 05:56:54;;;;;;;;;;;30.50;99.90;;;;;;4246941;27;20392;-62
2022/08/18 05:58:56;;;;;;;;;;;31.10;99.70;;;;;;4246592;27;19911;-62
2022/08/18 06:01:00;;;;;;;;;;;31.10;99.10;;;;;;4246603;27;19960;-62
2022/08/18 06:03:47;;;;;;;;;;;30.60;99.00;;;;;;4246591;27;19962;-62
2022/08/18 06:05:52;;;;;;;;;;;29.00;99.90;;;;;;4242960;27;19908;-62
2022/08/18 06:07:55;;;;;;;;;;;27.80;99.90;;;;;;4246706;27;19903;-62
2022/08/18 06:09:56;;;;;;;;;;;27.10;99.90;;;;;;4246540;27;19911;-62
2022/08/18 06:12:03;;;;;;;;;;;26.20;99.90;;;;;;4246559;27;19942;-62
2022/08/18 06:14:05;;;;;;;;;;;25.10;99.90;;;;;;4246520;27;19903;-62
2022/08/18 06:16:12;;;;;;;;;;;24.80;99.90;;;;;;4246493;27;20201;-62
2022/08/18 06:18:26;;;;;;;;;;;24.40;99.90;;;;;;4246048;27;19956;-62
2022/08/18 06:20:29;;;;;;;;;;;23.90;99.90;;;;;;4246938;27;19904;-62
2022/08/18 06:22:42;;;;;;;;;;;23.70;99.90;;;;;;4246047;27;20436;-62
2022/08/18 06:24:48;;;;;;;;;;;23.30;99.90;;;;;;4246762;27;20604;-64
2022/08/18 06:26:58;;;;;;;;;;;23.00;99.90;;;;;;4246216;27;19907;-62
2022/08/18 06:29:05;;;;;;;;;;;22.80;99.90;;;;;;4246637;27;19972;-63
2022/08/18 06:31:19;;;;;;;;;;;22.70;99.90;;;;;;4246074;27;19903;-65
2022/08/18 06:33:38;;;;;;;;;;;23.10;99.90;;;;;;4246727;27;20293;-62
2022/08/18 06:35:48;;;;;;;;;;;23.00;99.90;;;;;;4246411;27;19949;-62
2022/08/18 06:40:28;;;;;;;;;;;23.50;99.90;;;;;;4247070;27;19991;-63
2022/08/18 06:42:29;;;;;;;;;;;24.20;99.90;;;;;;4245822;27;20009;-63
2022/08/18 06:44:39;;;;;;;;;;;24.70;99.90;;;;;;4246384;27;19908;-62
2022/08/18 06:46:49;;;;;;;;;;;25.10;99.90;;;;;;4246138;27;20457;-64
2022/08/18 06:48:53;;;;;;;;;;;25.30;99.90;;;;;;4247001;27;19915;-63
2022/08/18 06:50:59;;;;;;;;;;;25.30;99.90;;;;;;4246017;27;19911;-64
2022/08/18 06:53:03;;;;;;;;;;;25.50;99.90;;;;;;4246318;27;20304;-64
2022/08/18 06:55:04;;;;;;;;;;;25.50;99.90;;;;;;4246147;27;20296;-63
2022/08/18 06:57:20;;;;;;;;;;;25.80;99.90;;;;;;4245683;27;19909;-64
2022/08/18 06:59:22;;;;;;;;;;;26.30;99.90;;;;;;4246307;27;19903;-62
2022/08/18 07:01:23;;;;;;;;;;;26.70;99.90;;;;;;4245088;27;19907;-63
2022/08/18 07:03:33;;;;;;;;;;;27.30;99.90;;;;;;4245997;27;19907;-62
2022/08/18 07:05:35;;;;;;;;;;;27.40;99.90;;;;;;4245281;27;20288;-62
2022/08/18 07:07:41;;;;;;;;;;;27.30;99.90;;;;;;4245803;27;19951;-62
2022/08/18 07:09:42;;;;;;;;;;;27.20;99.90;;;;;;4245187;27;19968;-64
2022/08/18 07:11:57;;;;;;;;;;;27.20;99.90;;;;;;4246299;27;19904;-65
2022/08/18 07:14:10;;;;;;;;;;;27.00;99.90;;;;;;4245360;27;19932;-66
2022/08/18 07:16:14;;;;;;;;;;;26.60;99.90;;;;;;4246254;27;19911;-63
2022/08/18 07:18:20;;;;;;;;;;;26.30;99.90;;;;;;4245330;27;19903;-64
2022/08/18 07:20:23;;;;;;;;;;;26.10;99.90;;;;;;4246426;27;20337;-64
2022/08/18 07:22:24;;;;;;;;;;;25.90;99.90;;;;;;4244795;27;20379;-63
2022/08/18 07:24:30;;;;;;;;;;;26.00;99.90;;;;;;4246313;27;19911;-63
2022/08/18 07:26:51;;;;;;;;;;;26.20;99.90;;;;;;4244745;27;19907;-64
2022/08/18 07:28:52;;;;;;;;;;;26.50;99.90;;;;;;4245909;27;20340;-64
2022/08/18 07:31:06;;;;;;;;;;;26.70;99.90;;;;;;4245102;27;19947;-64
2022/08/18 07:33:20;;;;;;;;;;;26.90;99.90;;;;;;4245493;27;19952;-63
2022/08/18 07:35:23;;;;;;;;;;;27.00;99.90;;;;;;4244892;27;19984;-63
2022/08/18 07:37:28;;;;;;;;;;;27.10;99.90;;;;;;4245886;27;19904;-64
2022/08/18 07:39:37;;;;;;;;;;;27.10;99.90;;;;;;4244437;27;20343;-63
2022/08/18 07:41:51;;;;;;;;;;;27.00;99.90;;;;;;4244655;27;19907;-65
2022/08/18 07:43:52;;;;;;;;;;;27.10;99.90;;;;;;4244797;27;20026;-63
2022/08/18 07:45:56;;;;;;;;;;;27.20;99.90;;;;;;4245837;27;19946;-63
2022/08/18 07:48:02;;;;;;;;;;;27.20;99.90;;;;;;4244650;27;20495;-63
2022/08/18 07:50:05;;;;;;;;;;;27.30;99.90;;;;;;4246256;27;19960;-65
2022/08/18 07:52:26;;;;;;;;;;;27.00;99.90;;;;;;4244473;27;19971;-65
2022/08/18 07:54:27;;;;;;;;;;;26.60;99.90;;;;;;4231408;27;19911;-66
2022/08/18 07:56:41;;;;;;;;;;;26.50;99.90;;;;;;4244688;27;19948;-65
2022/08/18 07:58:45;;;;;;;;;;;26.60;99.90;;;;;;4245689;27;19976;-65
2022/08/18 08:00:46;;;;;;;;;;;26.60;99.90;;;;;;4244313;27;19903;-64
2022/08/18 08:03:05;;;;;;;;;;;26.70;99.90;;;;;;4245843;27;20445;-68
2022/08/18 08:05:13;;;;;;;;;;;26.70;99.90;;;;;;4244596;27;19952;-67
2022/08/18 08:07:16;;;;;;;;;;;27.10;99.90;;;;;;4245503;27;20323;-67
2022/08/18 08:09:29;;;;;;;;;;;27.50;99.90;;;;;;4244413;27;19932;-65
2022/08/18 08:11:30;;;;;;;;;;;27.80;99.90;;;;;;4245408;27;19907;-63
2022/08/18 08:13:39;;;;;;;;;;;27.80;99.90;;;;;;4242849;27;19914;-64
2022/08/18 08:15:47;;;;;;;;;;;27.90;99.90;;;;;;4245549;27;19912;-67
2022/08/18 08:18:03;;;;;;;;;;;28.00;99.90;;;;;;4244489;27;19907;-66
2022/08/18 08:20:14;;;;;;;;;;;27.80;99.90;;;;;;4245827;27;19911;-65
2022/08/18 08:22:18;;;;;;;;;;;28.10;99.90;;;;;;4243612;27;19915;-63
2022/08/18 08:24:27;;;;;;;;;;;28.40;99.90;;;;;;4244728;28;19904;-65
2022/08/18 08:26:28;;;;;;;;;;;28.70;99.90;;;;;;4243591;27;19900;-66
2022/08/18 08:28:39;;;;;;;;;;;28.60;99.90;;;;;;4244158;28;20240;-66
2022/08/18 08:30:45;;;;;;;;;;;28.50;99.90;;;;;;4243625;28;19919;-64
2022/08/18 08:32:55;;;;;;;;;;;28.10;99.90;;;;;;4243590;27;20015;-65
2022/08/18 08:35:01;;;;;;;;;;;28.00;99.90;;;;;;4243070;27;20313;-64
2022/08/18 08:37:08;;;;;;;;;;;27.80;99.90;;;;;;4244070;28;20192;-63
2022/08/18 08:39:17;;;;;;;;;;;27.50;99.90;;;;;;4243820;28;19972;-63
2022/08/18 08:41:25;;;;;;;;;;;27.20;99.90;;;;;;4243935;28;19907;-62
2022/08/18 08:43:31;;;;;;;;;;;27.00;99.90;;;;;;4243277;27;19903;-62
2022/08/18 08:45:41;;;;;;;;;;;27.00;99.90;;;;;;4243815;28;19904;-62
2022/08/18 08:47:50;;;;;;;;;;;26.80;99.90;;;;;;4243856;27;19907;-64
2022/08/18 08:49:57;;;;;;;;;;;26.70;99.90;;;;;;4244288;28;19976;-65
2022/08/18 08:52:08;;;;;;;;;;;26.60;99.90;;;;;;4245031;27;19922;-64
2022/08/18 08:54:22;;;;;;;;;;;26.50;99.90;;;;;;4247109;28;19911;-64
2022/08/18 08:56:26;;;;;;;;;;;26.60;99.90;;;;;;4246913;28;19948;-63
2022/08/18 08:58:35;;;;;;;;;;;26.70;99.90;;;;;;4246791;28;19948;-63
2022/08/18 09:00:37;;;;;;;;;;;26.70;99.90;;;;;;4246951;28;19968;-64
2022/08/18 09:02:38;;;;;;;;;;;26.80;99.90;;;;;;4246670;28;19911;-64
2022/08/18 09:04:46;;;;;;;;;;;26.90;99.90;;;;;;4247051;28;19926;-64
2022/08/18 09:06:50;;;;;;;;;;;27.00;99.90;;;;;;4246177;28;19949;-64
2022/08/18 09:09:09;;;;;;;;;;;27.10;99.90;;;;;;4247171;28;19903;-65
2022/08/18 09:11:19;;;;;;;;;;;27.10;99.90;;;;;;4246466;28;19907;-64
2022/08/18 09:13:26;;;;;;;;;;;27.10;99.90;;;;;;4245288;28;19903;-64
2022/08/18 09:15:33;;;;;;;;;;;27.00;99.90;;;;;;4245860;27;19903;-63
2022/08/18 09:17:37;;;;;;;;;;;27.10;99.90;;;;;;4247055;28;19911;-64
2022/08/18 09:19:46;;;;;;;;;;;27.20;99.90;;;;;;4246617;28;19903;-63
2022/08/18 09:21:52;;;;;;;;;;;27.30;99.90;;;;;;4203786;27;1218174;-64
2022/08/18 09:24:14;;;;;;;;;;;27.30;99.90;;;;;;4246956;27;19938;-63
2022/08/18 09:26:26;;;;;;;;;;;27.50;99.90;;;;;;4233130;27;19972;-63
2022/08/18 09:28:27;;;;;;;;;;;27.70;99.90;;;;;;4247067;27;19911;-64
2022/08/18 09:30:44;;;;;;;;;;;27.70;99.90;;;;;;4247858;27;19922;-66
2022/08/18 09:32:55;;;;;;;;;;;27.80;99.90;;;;;;4247184;27;19972;-64
2022/08/18 09:35:18;;;;;;;;;;;27.80;99.90;;;;;;4247779;27;19907;-64
2022/08/18 09:37:24;;;;;;;;;;;27.70;99.90;;;;;;4246996;27;19965;-64
2022/08/18 09:41:50;;;;;;;;;;;27.80;99.90;;;;;;4247351;27;20324;-64
2022/08/18 09:43:53;;;;;;;;;;;28.10;99.90;;;;;;4247273;27;19939;-63
2022/08/18 09:45:56;;;;;;;;;;;28.10;99.90;;;;;;4247039;27;20312;-64
2022/08/18 09:47:59;;;;;;;;;;;28.30;99.90;;;;;;4247477;27;19904;-64
2022/08/18 09:50:02;;;;;;;;;;;28.40;99.90;;;;;;4247065;27;19984;-64
2022/08/18 09:52:21;;;;;;;;;;;28.60;99.90;;;;;;4247687;27;20316;-63
2022/08/18 09:54:23;;;;;;;;;;;28.80;99.90;;;;;;4246842;27;19903;-64
2022/08/18 09:56:43;;;;;;;;;;;28.80;99.90;;;;;;4245615;27;19965;-64
2022/08/18 09:58:49;;;;;;;;;;;28.90;99.90;;;;;;4246667;27;19978;-64
2022/08/18 10:01:08;;;;;;;;;;;28.80;99.90;;;;;;4247383;27;20249;-64
2022/08/18 10:03:11;;;;;;;;;;;28.90;99.90;;;;;;4246424;27;19907;-64
2022/08/18 10:05:21;;;;;;;;;;;28.70;99.90;;;;;;4247115;27;19952;-63
2022/08/18 10:07:29;;;;;;;;;;;28.50;99.90;;;;;;4246317;27;20276;-64
2022/08/18 10:09:42;;;;;;;;;;;28.50;99.90;;;;;;4247024;27;19960;-64
2022/08/18 10:11:56;;;;;;;;;;;28.20;99.90;;;;;;4246322;27;19979;-64
2022/08/18 10:14:17;;;;;;;;;;;28.10;99.90;;;;;;4247007;27;19964;-64
2022/08/18 10:16:36;;;;;;;;;;;28.10;99.90;;;;;;4244353;27;19948;-65
2022/08/18 10:18:44;;;;;;;;;;;28.10;99.90;;;;;;4246383;27;20309;-64
2022/08/18 10:20:50;;;;;;;;;;;28.00;99.90;;;;;;4246756;27;19907;-64
2022/08/18 10:22:52;;;;;;;;;;;28.00;99.90;;;;;;4246209;27;19974;-64
2022/08/18 10:24:58;;;;;;;;;;;28.30;99.90;;;;;;4246443;27;19911;-64
2022/08/18 10:27:04;;;;;;;;;;;28.50;99.90;;;;;;4246604;27;19904;-64
2022/08/18 10:29:06;;;;;;;;;;;28.40;99.90;;;;;;4246418;27;19937;-64
2022/08/18 10:31:07;;;;;;;;;;;28.60;99.90;;;;;;4246442;27;19980;-64
2022/08/18 10:33:10;;;;;;;;;;;28.70;99.90;;;;;;4245482;27;19903;-65
2022/08/18 10:35:29;;;;;;;;;;;28.70;99.90;;;;;;4245414;27;20375;-64
2022/08/18 10:37:45;;;;;;;;;;;28.60;99.90;;;;;;4245822;27;19933;-64
2022/08/18 10:39:48;;;;;;;;;;;28.70;99.90;;;;;;4246913;27;20375;-63
2022/08/18 10:41:55;;;;;;;;;;;28.60;99.90;;;;;;4245991;27;20321;-63
2022/08/18 10:43:57;;;;;;;;;;;28.70;99.90;;;;;;4246879;27;19998;-63
2022/08/18 10:45:58;;;;;;;;;;;28.90;99.90;;;;;;4245577;27;19908;-63
2022/08/18 10:48:18;;;;;;;;;;;28.90;99.90;;;;;;4244935;27;19908;-63
2022/08/18 10:50:20;;;;;;;;;;;28.90;99.90;;;;;;4245791;27;20379;-63
2022/08/18 10:52:24;;;;;;;;;;;28.90;99.90;;;;;;4246552;27;19907;-64
2022/08/18 10:54:44;;;;;;;;;;;29.00;99.90;;;;;;4245552;27;20339;-64
2022/08/18 10:56:48;;;;;;;;;;;28.90;99.90;;;;;;4246948;27;20399;-64
2022/08/18 10:59:01;;;;;;;;;;;28.80;99.90;;;;;;4245319;27;20316;-64
2022/08/18 11:01:22;;;;;;;;;;;28.70;99.90;;;;;;4246188;27;19907;-64
2022/08/18 11:03:28;;;;;;;;;;;28.60;99.90;;;;;;4243963;27;19911;-64
2022/08/18 11:05:29;;;;;;;;;;;28.60;99.90;;;;;;4246728;27;19903;-64
2022/08/18 11:07:31;;;;;;;;;;;28.70;99.90;;;;;;4245153;27;19911;-64
2022/08/18 11:09:32;;;;;;;;;;;28.80;99.90;;;;;;4246484;27;20362;-65
2022/08/18 11:11:35;;;;;;;;;;;28.80;99.90;;;;;;4245291;27;19918;-64
2022/08/18 11:13:43;;;;;;;;;;;29.00;99.90;;;;;;4246442;27;19979;-64
2022/08/18 11:15:53;;;;;;;;;;;29.00;99.90;;;;;;4244810;27;20438;-63
2022/08/18 11:18:00;;;;;;;;;;;29.00;99.90;;;;;;4245866;27;19956;-65
2022/08/18 11:20:04;;;;;;;;;;;29.10;99.90;;;;;;4245693;27;20252;-65
2022/08/18 11:22:05;;;;;;;;;;;29.20;99.90;;;;;;4246079;27;19919;-64
2022/08/18 11:24:14;;;;;;;;;;;29.20;99.90;;;;;;4245187;27;19903;-66
2022/08/18 11:26:16;;;;;;;;;;;29.20;99.90;;;;;;4246415;27;20309;-64
2022/08/18 11:28:18;;;;;;;;;;;29.10;99.90;;;;;;4245209;27;19933;-64
2022/08/18 11:30:20;;;;;;;;;;;29.20;99.90;;;;;;4244114;27;19980;-64
2022/08/18 11:32:36;;;;;;;;;;;29.30;99.90;;;;;;4245268;27;19904;-64
2022/08/18 11:34:37;;;;;;;;;;;29.40;99.90;;;;;;4246046;27;19907;-64
2022/08/18 11:36:38;;;;;;;;;;;29.50;99.90;;;;;;4244892;27;19910;-65
2022/08/18 11:38:39;;;;;;;;;;;29.60;99.90;;;;;;4245594;27;19911;-65
2022/08/18 11:40:41;;;;;;;;;;;29.70;99.40;;;;;;4245582;27;20011;-65
2022/08/18 11:42:49;;;;;;;;;;;29.70;99.60;;;;;;4245199;27;19907;-65
2022/08/18 11:44:49;;;;;;;;;;;29.80;99.30;;;;;;4245710;27;19907;-66
2022/08/18 11:46:56;;;;;;;;;;;30.00;98.90;;;;;;4244636;27;19927;-65
2022/08/18 11:48:58;;;;;;;;;;;30.30;98.80;;;;;;4245788;27;20309;-66
2022/08/18 11:51:01;;;;;;;;;;;30.50;98.20;;;;;;4244744;27;19915;-64
2022/08/18 11:53:20;;;;;;;;;;;30.20;98.50;;;;;;4245764;27;19907;-62
2022/08/18 11:55:29;;;;;;;;;;;30.30;98.60;;;;;;4244586;27;19907;-63
2022/08/18 11:57:40;;;;;;;;;;;30.20;98.00;;;;;;4245698;27;20040;-63
2022/08/18 11:59:41;;;;;;;;;;;30.20;98.20;;;;;;4244194;27;20260;-63
2022/08/18 12:01:45;;;;;;;;;;;30.20;98.20;;;;;;4245774;27;20014;-63
2022/08/18 12:03:48;;;;;;;;;;;30.40;99.00;;;;;;4244517;27;19907;-64
2022/08/18 12:05:52;;;;;;;;;;;30.50;97.90;;;;;;4245627;27;19907;-64
2022/08/18 12:07:53;;;;;;;;;;;30.70;97.30;;;;;;4244371;27;20355;-63
2022/08/18 12:10:29;;;;;;;;;;;30.60;97.20;;;;;;4245479;27;19912;-64
2022/08/18 12:12:31;;;;;;;;;;;30.90;97.20;;;;;;4174937;28;20319;-65
2022/08/18 12:14:48;;;;;;;;;;;31.00;95.60;;;;;;4214063;27;20323;-64
2022/08/18 12:16:50;;;;;;;;;;;30.90;95.20;;;;;;4244296;27;19911;-63
2022/08/18 12:18:51;;;;;;;;;;;30.80;93.90;;;;;;4245439;27;20305;-64
2022/08/18 12:20:52;;;;;;;;;;;30.90;93.70;;;;;;4244670;27;19903;-63
2022/08/18 12:22:54;;;;;;;;;;;31.00;93.50;;;;;;4245207;27;20335;-63